• Join FlightAware (Why Join?)
  • Login
  • US Flag 
02:17PM EDT


 

Airport Tracker/Info


-or-


 

Live Flight TrackerFlight Track Log ✈ DAL3676 ✈ 15-Apr-2013 ✈ KHSV - KDTW

Flight Track Log - Related Links

Times and Time Zones

All times are in EDT time to prevent confusion due to time zone crossing. See the DAL3676 flight status page for this flight to view local times or setup timezone preferences in your user account.

Time Position Orientation Groundspeed Altitude Reporting Facility
EDT Latitude Longitude Course Direction KTS MPH feet Rate Location/Type
07:16PM 34.5483 -86.7664 North 182 209 4,900  Level Memphis Center
07:17PM 34.5758 -86.7047 62° Northeast 102 117 7,200 2,280 Climbing Memphis Center
07:18PM 34.6553 -86.7064 359° North 153 176 9,500 2,400 Climbing Memphis Center
07:19PM 34.7344 -86.7081 359° North 237 273 12,000 2,340 Climbing Memphis Center
07:20PM 35.1789 -86.7354 North  Level FlightAware Approximate
07:20PM 34.8178 -86.7044 North 278 320 14,200  Level Memphis Center
07:21PM 35.2880 -86.7245 North  Level FlightAware Approximate
07:21PM 34.9075 -86.7006 North 304 350 16,200  Level Memphis Center
07:22PM 34.9994 -86.7017 359° North 317 365 18,100 1,860 Climbing Memphis Center
07:23PM 35.0933 -86.7025 360° North 328 377 20,000 1,740 Climbing Memphis Center
07:24PM 35.1869 -86.6986 North 328 377 21,600 1,500 Climbing Memphis Center
07:25PM 35.2828 -86.6969 North 339 390 23,000 1,440 Climbing Memphis Center
07:26PM 35.3831 -86.6975 360° North 347 399 24,500 1,380 Climbing Memphis Center
07:27PM 35.4869 -86.6903 North 358 412 25,800 1,140 Climbing Memphis Center
07:28PM 35.5869 -86.6808 North 364 419 26,800 600 Climbing Memphis Center
07:29PM 35.6992 -86.6733 North 384 442 27,000 60 Climbing Memphis Center
07:30PM 35.8242 -86.6653 North 397 457 27,000  Level Memphis Center
07:31PM 35.9406 -86.6547 North 411 473 27,000  Level Memphis Center
07:32PM 36.0611 -86.6442 North 418 481 27,000  Level Memphis Center
07:33PM 36.1842 -86.6386 North 424 488 27,000  Level Memphis Center
07:34PM 36.3067 -86.6228 North 437 503 27,000  Level Memphis Center
07:35PM 36.4314 -86.6119 North 447 514 27,000  Level Memphis Center
07:36PM 36.5542 -86.6086 North 441 507 27,100  Climbing Memphis Center
07:37PM 36.6792 -86.6031 North 441 507 27,000 -60 Descending Memphis Center
07:38PM 36.7997 -86.5947 North 435 501 27,000  Level Memphis Center
07:39PM 36.9225 -86.5836 North 435 501 27,000  Level Memphis Center
07:40PM 37.1008 -86.5719 North 440 506 27,000  Level Indianapolis Center
07:41PM 37.2239 -86.5581 North 440 506 27,000  Level Indianapolis Center
07:42PM 37.3472 -86.5528 North 440 506 27,000  Level Indianapolis Center
07:43PM 37.4881 -86.5144 12° North 450 518 27,000 -60 Level Indianapolis Center
07:44PM 37.5842 -86.4011 43° Northeast 466 536 26,900  Descending Indianapolis Center
07:45PM 37.6769 -86.2836 45° Northeast 467 537 27,000  Climbing Indianapolis Center
07:46PM 37.7606 -86.1778 45° Northeast 467 537 27,000  Level Indianapolis Center
07:47PM 37.8503 -86.0567 47° Northeast 470 541 27,000  Level Indianapolis Center
07:48PM 37.9411 -85.9367 46° Northeast 473 544 27,000  Level Indianapolis Center
07:49PM 38.0481 -85.7900 47° Northeast 472 543 27,000  Level Indianapolis Center
07:50PM 38.1408 -85.6700 45° Northeast 475 547 27,000  Level Indianapolis Center
07:51PM 38.2297 -85.5469 47° Northeast 474 545 27,000  Level Indianapolis Center
07:53PM 38.3192 -85.4233 47° Northeast 474 545 27,000  Level Indianapolis Center
07:54PM 38.4056 -85.2975 49° Northeast 472 543 27,000  Level Indianapolis Center
07:55PM 38.4986 -85.1764 46° Northeast 471 542 27,000  Level Indianapolis Center
07:56PM 38.6028 -85.0306 48° Northeast 475 547 27,000  Level Indianapolis Center
07:57PM 38.6775 -84.9272 47° Northeast 477 549 27,000  Level Indianapolis Center
07:58PM 38.7842 -84.7814 47° Northeast 475 547 27,000  Level Indianapolis Center
07:59PM 38.8747 -84.6550 47° Northeast 478 550 27,000  Level Indianapolis Center
08:00PM 38.9703 -84.5206 48° Northeast 477 549 27,000 -60 Level Indianapolis Center
08:01PM 39.0600 -84.3925 48° Northeast 477 549 26,900  Descending Indianapolis Center
08:02PM 39.1489 -84.2619 49° Northeast 480 552 27,000  Climbing Indianapolis Center
08:03PM 39.2397 -84.1364 47° Northeast 477 549 27,000  Level Indianapolis Center
08:04PM 39.3289 -84.0058 49° Northeast 479 551 27,000 -60 Level Indianapolis Center
08:05PM 39.4200 -83.8783 47° Northeast 478 550 26,900  Descending Indianapolis Center
08:06PM 39.5108 -83.7514 47° Northeast 479 551 27,000  Climbing Indianapolis Center
08:07PM 39.5994 -83.6222 48° Northeast 478 550 26,900 -60 Descending Indianapolis Center
08:08PM 39.6867 -83.4925 49° Northeast 477 549 26,900  Level Indianapolis Center
08:09PM 39.7894 -83.3453 48° Northeast 479 551 27,000  Climbing Indianapolis Center
08:10PM 39.8744 -83.2153 50° Northeast 476 548 27,000 -60 Level Indianapolis Center
08:11PM 39.9667 -83.0917 46° Northeast 475 547 26,900  Descending Indianapolis Center
08:12PM 40.0544 -82.9597 49° Northeast 477 549 27,000  Climbing Indianapolis Center
08:13PM 40.1431 -82.8289 48° Northeast 479 551 26,900  Descending Indianapolis Center
08:14PM 40.2325 -82.6967 48° Northeast 479 551 27,000  Climbing Indianapolis Center
08:15PM 40.3561 -82.6064 29° Northeast 461 531 27,000  Level Indianapolis Center
08:16PM 40.4814 -82.5933 North 449 517 27,000  Level Indianapolis Center
08:17PM 40.6039 -82.6081 355° North 443 510 27,100  Climbing Indianapolis Center
08:18PM 40.7208 -82.6508 345° North 433 498 27,000 -360 Descending Indianapolis Center
08:19PM 40.8367 -82.6944 344° North 427 491 26,400 -840 Descending Indianapolis Center
08:20PM 40.9486 -82.7414 342° North 420 483 25,300 -900 Descending Indianapolis Center
08:21PM 41.0589 -82.7944 340° North 416 479 24,600 -1,020 Descending Cleveland Center
08:22PM 41.1683 -82.8394 343° North 411 473 23,300 -1,860 Descending Cleveland Center
08:23PM 41.2697 -82.8789 344° North 393 452 20,900 -2,100 Descending Cleveland Center
08:24PM 41.3608 -82.9153 343° North 381 438 19,200 -1,800 Descending Cleveland Center
08:25PM 41.4578 -82.9603 341° North 374 430 17,300 -2,160 Descending Cleveland Center
08:26PM 41.5511 -82.9944 345° North 358 412 15,300 -2,220 Descending Cleveland Center
08:27PM 41.6150 -83.0244 341° North 362 417 13,900 -1,920 Descending Cleveland Center
08:27PM 41.6583 -83.0400 345° North 357 411 13,100 -1,860 Descending Cleveland Center
08:28PM 41.6978 -83.0583 341° North 367 422 12,400 -1,140 Descending Cleveland Center
08:28PM 41.7489 -83.0964 331° Northwest 364 419 12,000 -480 Descending Cleveland Center
08:28PM 41.7717 -83.1111 334° Northwest 355 409 12,000  Level Cleveland Center
08:29PM 41.8353 -83.1556 333° Northwest 358 412 12,000  Level Cleveland Center
08:30PM 41.8767 -83.1711 344° North 363 418 12,000 -600 Level Cleveland Center
08:30PM 41.9325 -83.1872 348° North 358 412 11,400 -900 Descending Cleveland Center
08:31PM 41.9883 -83.2036 348° North 357 411 11,000 -420 Descending Cleveland Center
08:31PM 42.0300 -83.2108 353° North 352 405 11,000  Level Cleveland Center
08:32PM 42.0711 -83.2267 344° North 352 405 11,000 -120 Level Cleveland Center
08:32PM 42.1256 -83.2403 349° North 277 319 10,900 -600 Descending FAA TRACON SMA TRACON (SMA)
08:33PM 42.1531 -83.2469 350° North 269 310 10,400 -1,380 Descending FAA TRACON SMA TRACON (SMA)
08:33PM 42.1758 -83.2425 North 258 297 10,000 -1,380 Descending FAA TRACON SMA TRACON (SMA)
08:33PM 42.1975 -83.2300 23° Northeast 262 302 9,500 -1,920 Descending FAA TRACON SMA TRACON (SMA)
08:34PM 42.2222 -83.2092 32° Northeast 269 310 8,700 -1,920 Descending FAA TRACON SMA TRACON (SMA)
08:34PM 42.2414 -83.1914 34° Northeast 282 325 8,200 -1,680 Descending FAA TRACON SMA TRACON (SMA)
08:34PM 42.2592 -83.1742 36° Northeast 263 303 7,600 -1,680 Descending FAA TRACON SMA TRACON (SMA)
08:35PM 42.2817 -83.1539 34° Northeast 257 296 7,100 -1,500 Descending FAA TRACON SMA TRACON (SMA)
08:35PM 42.2992 -83.1369 36° Northeast 255 293 6,600 -1,680 Descending FAA TRACON SMA TRACON (SMA)
08:35PM 42.3164 -83.1189 38° Northeast 254 292 6,000 -1,680 Descending FAA TRACON SMA TRACON (SMA)
08:36PM 42.3403 -83.1092 17° North 224 258 5,500 -1,800 Descending FAA TRACON SMA TRACON (SMA)
08:36PM 42.3575 -83.1211 333° Northwest 228 262 4,800 -1,680 Descending FAA TRACON SMA TRACON (SMA)
08:36PM 42.3742 -83.1450 313° West 218 251 4,400 -1,080 Descending FAA TRACON SMA TRACON (SMA)
08:37PM 42.3792 -83.1672 287° West 202 232 4,100 -780 Descending FAA TRACON SMA TRACON (SMA)
08:37PM 42.3775 -83.1889 264° West 194 223 3,900 -600 Descending FAA TRACON SMA TRACON (SMA)
08:37PM 42.3703 -83.2142 249° West 194 223 3,700 -480 Descending FAA TRACON SMA TRACON (SMA)
08:38PM 42.3583 -83.2300 224° Southwest 194 223 3,600 -180 Descending FAA TRACON SMA TRACON (SMA)
08:38PM 42.3442 -83.2411 210° Southwest 193 222 3,600 -600 Level FAA TRACON SMA TRACON (SMA)
08:38PM 42.3283 -83.2533 210° Southwest 197 227 3,200 -1,260 Descending FAA TRACON SMA TRACON (SMA)
08:39PM 42.3103 -83.2669 209° Southwest 193 222 2,800 -1,260 Descending FAA TRACON SMA TRACON (SMA)
08:39PM 42.2972 -83.2767 209° Southwest 166 191 2,400 -900 Descending FAA TRACON SMA TRACON (SMA)
08:39PM 42.2850 -83.2856 208° Southwest 123 142 2,200 -600 Descending FAA TRACON SMA TRACON (SMA)
08:40PM 42.2769 -83.2917 209° Southwest 114 131 2,000 -780 Descending FAA TRACON SMA TRACON (SMA)
08:40PM 42.2667 -83.2994 209° Southwest 112 129 1,700 -780 Descending FAA TRACON SMA TRACON (SMA)
08:40PM 42.2567 -83.3069 209° Southwest 115 132 1,500 -480 Descending FAA TRACON SMA TRACON (SMA)
08:41PM 42.2481 -83.3133 209° Southwest 118 136 1,400 -480 Descending FAA TRACON SMA TRACON (SMA)
08:41PM 42.2394 -83.3194 208° Southwest 119 137 1,200 -840 Descending FAA TRACON SMA TRACON (SMA)
08:41PM 42.2286 -83.3275 209° Southwest 121 139 900 -780 Descending FAA TRACON SMA TRACON (SMA)
08:42PM 42.2200 -83.3342 210° Southwest 124 143 700 -480 Descending FAA TRACON SMA TRACON (SMA)
08:42PM 42.2100 -83.3411 207° Southwest 90 104 600 -180 Descending FAA TRACON SMA TRACON (SMA)
08:42PM 42.2047 -83.3453 210° Southwest 57 66 600  Level FAA TRACON SMA TRACON (SMA)
08:43PM 42.2047 -83.3453 37° Northeast 57 66 600  Level FAA TRACON SMA TRACON (SMA)